createdAt,value
2019-05-21T01:29:16.170Z,50.00
2019-05-21T01:31:45.002Z,44.87
2019-05-21T01:34:13.818Z,48.33
2019-05-21T01:36:43.622Z,45.17
2019-05-21T01:39:12.315Z,46.20
2019-05-21T01:41:41.153Z,44.03
2019-05-21T01:44:09.949Z,44.07
2019-05-21T01:46:38.776Z,43.17
2019-05-21T01:49:07.571Z,46.20
2019-05-21T01:51:59.568Z,46.43
2019-05-21T01:54:28.282Z,46.73
2019-05-21T01:57:01.120Z,46.00
2019-05-21T01:59:29.877Z,49.20
2019-05-21T02:02:00.703Z,49.67
2019-05-21T02:04:29.474Z,51.50
2019-05-21T02:07:00.344Z,49.17
2019-05-21T02:09:29.283Z,52.17
2019-05-21T02:12:17.330Z,52.37
2019-05-21T02:14:46.165Z,52.93
2019-05-21T02:17:14.968Z,52.50
2019-05-21T02:19:43.965Z,53.27
2019-05-21T02:22:12.760Z,50.07
2019-05-21T02:24:41.529Z,50.90
2019-05-21T02:27:12.260Z,49.93
2019-05-21T02:29:41.112Z,53.17
2019-05-21T02:32:22.289Z,54.30
2019-05-21T02:34:51.078Z,46.60
2019-05-21T02:37:38.231Z,51.97
2019-05-21T02:40:07.344Z,50.03
2019-05-21T02:42:38.248Z,49.57
2019-05-21T02:45:08.130Z,55.77
2019-05-21T02:47:36.941Z,51.97
2019-05-21T02:50:07.847Z,48.93
2019-05-21T02:52:38.811Z,49.77
2019-05-21T03:00:49.306Z,55.80
2019-05-21T03:03:19.790Z,47.60
2019-05-21T03:05:48.709Z,48.30
2019-05-21T03:08:17.496Z,49.37
2019-05-21T03:11:01.250Z,47.93
2019-05-21T03:13:30.155Z,46.90
2019-05-21T03:16:16.142Z,51.13
2019-05-21T03:18:44.945Z,54.73
2019-05-21T03:21:15.858Z,50.77
2019-05-21T03:23:44.632Z,52.57
2019-05-21T03:26:17.761Z,51.53
2019-05-21T03:31:38.984Z,52.70
2019-05-21T03:34:07.765Z,50.43
2019-05-21T03:36:46.791Z,52.97
2019-05-21T03:39:19.250Z,54.77
2019-05-21T03:41:48.153Z,57.13
2019-05-21T03:44:16.930Z,59.37
2019-05-21T03:46:46.856Z,60.07
2019-05-21T03:49:15.623Z,58.43
2019-05-21T03:51:46.538Z,60.77
2019-05-21T03:54:15.347Z,62.13
2019-05-21T03:56:45.282Z,61.53
2019-05-21T03:59:14.102Z,61.07
2019-05-21T04:01:44.610Z,64.17
2019-05-21T04:04:13.421Z,67.20
2019-05-21T04:06:52.073Z,67.13
2019-05-21T04:09:12.715Z,69.87
2019-05-21T04:11:41.652Z,65.93
2019-05-21T04:14:10.502Z,66.97
2019-05-21T04:22:30.319Z,64.20
2019-05-21T04:24:59.103Z,70.50
2019-05-21T04:27:27.874Z,72.30
2019-05-21T04:29:57.789Z,81.33
2019-05-21T04:32:26.495Z,74.00
2019-05-21T04:35:12.576Z,68.37
2019-05-21T04:37:41.404Z,67.93
2019-05-21T04:40:11.914Z,65.93
2019-05-21T04:42:40.747Z,68.03
2019-05-21T04:45:23.783Z,68.17
2019-05-21T04:47:52.596Z,73.27
2019-05-21T04:50:21.393Z,66.73
2019-05-21T04:52:50.229Z,67.73
2019-05-21T04:55:31.061Z,68.50
2019-05-21T04:57:59.889Z,68.57
2019-05-21T05:00:28.761Z,64.10
2019-05-21T05:02:57.576Z,66.17
2019-05-21T05:05:28.449Z,66.17
2019-05-21T05:07:57.251Z,70.17
2019-05-21T05:10:29.661Z,74.37
2019-05-21T05:12:58.929Z,70.27
2019-05-21T05:15:28.140Z,67.97
2019-05-21T05:17:56.869Z,71.80
2019-05-21T05:20:26.793Z,65.20
2019-05-21T05:23:01.735Z,64.17
2019-05-21T05:25:30.571Z,69.67
2019-05-21T05:27:59.268Z,64.93
2019-05-21T05:30:28.316Z,67.10
2019-05-21T05:32:57.101Z,66.77
2019-05-21T05:35:25.897Z,63.63
2019-05-21T05:37:57.759Z,69.30
2019-05-21T05:40:26.588Z,68.17
2019-05-21T05:42:55.412Z,62.30
2019-05-21T05:45:36.227Z,61.60
2019-05-21T05:48:05.113Z,58.47
2019-05-21T05:50:35.637Z,59.27
2019-05-21T05:53:04.495Z,56.33
2019-05-21T05:55:36.425Z,58.10
2019-05-21T05:58:05.380Z,59.17
2019-05-21T06:00:34.244Z,56.80
2019-05-21T06:03:03.090Z,59.47
2019-05-21T06:05:31.852Z,52.70
2019-05-21T06:08:00.743Z,52.10
2019-05-21T06:10:39.844Z,57.53
2019-05-21T06:13:06.158Z,54.10
2019-05-21T06:15:34.976Z,51.87
2019-05-21T06:18:24.610Z,53.83
2019-05-21T06:20:53.445Z,53.43
2019-05-21T06:23:22.234Z,57.93
2019-05-21T06:25:51.064Z,55.70
2019-05-21T06:28:19.783Z,53.90
2019-05-21T06:30:52.651Z,54.30
2019-05-21T06:33:21.454Z,50.67
2019-05-21T06:35:50.237Z,52.13
2019-05-21T06:38:35.088Z,50.07
2019-05-21T06:41:03.902Z,48.50
2019-05-21T06:43:32.706Z,45.50
2019-05-21T06:49:21.349Z,46.77
2019-05-21T06:51:50.118Z,45.93
2019-05-21T06:54:18.914Z,46.67
2019-05-21T06:56:49.768Z,44.77
2019-05-21T06:59:18.599Z,42.67
2019-05-21T07:01:47.410Z,42.50
2019-05-21T07:04:28.372Z,41.50
2019-05-21T07:06:57.204Z,44.97
2019-05-21T07:09:25.993Z,42.73
2019-05-21T07:12:09.940Z,41.03
2019-05-21T07:14:38.754Z,38.13
2019-05-21T07:17:07.578Z,43.27
2019-05-21T07:20:11.365Z,37.37
2019-05-21T07:22:40.336Z,36.83
2019-05-21T07:25:09.278Z,36.13
2019-05-21T07:28:02.537Z,33.10
2019-05-21T07:30:31.336Z,32.27
2019-05-21T07:33:00.155Z,30.90
2019-05-21T07:35:52.072Z,28.10
2019-05-21T07:38:20.999Z,22.20
2019-05-21T07:40:49.794Z,22.27
2019-05-21T07:43:18.616Z,25.13
2019-05-21T07:45:47.455Z,23.73
2019-05-21T07:48:16.218Z,21.27
2019-05-21T07:51:06.019Z,22.63
2019-05-21T07:53:34.779Z,20.27
2019-05-21T07:56:03.637Z,22.10
2019-05-21T07:58:56.763Z,21.63
2019-05-21T08:01:25.684Z,23.10
2019-05-21T08:03:57.753Z,22.67
2019-05-21T08:06:26.566Z,23.67
2019-05-21T08:09:11.638Z,24.90
2019-05-21T08:12:27.821Z,24.37
2019-05-21T08:14:53.022Z,26.70
2019-05-21T08:17:21.790Z,28.83
2019-05-21T08:19:50.577Z,27.20
2019-05-21T08:22:50.945Z,29.70
2019-05-21T08:25:19.724Z,30.33
2019-05-21T08:27:48.564Z,31.67
2019-05-21T08:30:19.520Z,33.47
2019-05-21T08:32:48.356Z,33.13
2019-05-21T08:38:17.361Z,41.47
2019-05-21T08:40:46.085Z,46.00
2019-05-21T08:43:14.867Z,47.93
2019-05-21T08:45:58.769Z,44.17
2019-05-21T08:48:27.468Z,49.17
2019-05-21T08:50:56.376Z,43.47
2019-05-21T08:53:31.470Z,45.67
2019-05-21T08:56:00.278Z,51.10
2019-05-21T08:58:29.081Z,46.77
2019-05-21T09:01:01.144Z,45.47
2019-05-21T09:03:29.921Z,46.30
2019-05-21T09:05:58.739Z,41.17
2019-05-21T09:08:55.132Z,38.27
2019-05-21T09:11:23.951Z,36.03
2019-05-21T09:13:52.762Z,35.60
2019-05-21T09:16:21.616Z,32.70
2019-05-21T09:18:50.396Z,26.23
2019-05-21T09:21:19.296Z,29.40
2019-05-21T09:23:54.324Z,24.43
2019-05-21T09:26:23.035Z,26.33
2019-05-21T09:29:00.090Z,23.40
2019-05-21T09:31:28.866Z,21.17
2019-05-21T09:33:57.639Z,21.07
2019-05-21T09:36:28.158Z,21.00
2019-05-21T09:38:57.264Z,23.00
2019-05-21T09:41:26.047Z,21.10
2019-05-21T09:44:31.593Z,21.03
2019-05-21T09:47:00.433Z,23.73
2019-05-21T09:49:29.220Z,20.67
2019-05-21T09:57:51.819Z,18.23
2019-05-21T10:03:27.110Z,16.73
2019-05-21T10:05:55.939Z,17.63
2019-05-21T10:08:27.972Z,18.27
2019-05-21T10:10:56.806Z,17.67
2019-05-21T10:16:43.580Z,17.10
2019-05-21T10:19:12.371Z,15.77
2019-05-21T10:21:41.155Z,16.40
2019-05-21T10:24:13.049Z,17.70
2019-05-21T10:26:41.837Z,15.97
2019-05-21T10:29:29.925Z,16.00
2019-05-21T10:31:58.715Z,16.73
2019-05-21T10:34:27.647Z,18.20
2019-05-21T10:37:04.833Z,17.20
2019-05-21T10:39:33.767Z,18.33
2019-05-21T10:42:02.544Z,19.00
2019-05-21T10:44:36.619Z,21.03
2019-05-21T10:47:05.752Z,18.47
2019-05-21T10:49:34.564Z,18.90
2019-05-21T10:52:15.511Z,19.93
2019-05-21T10:54:44.358Z,19.07
2019-05-21T10:57:13.155Z,25.30
2019-05-21T10:59:41.948Z,23.67
2019-05-21T11:02:12.387Z,25.77
2019-05-21T11:04:42.816Z,24.90
2019-05-21T11:07:35.953Z,26.63
2019-05-21T11:15:54.454Z,27.23
2019-05-21T11:18:23.231Z,27.10
2019-05-21T11:20:52.176Z,28.57
2019-05-21T11:23:30.123Z,29.07
2019-05-21T11:25:58.948Z,27.47
2019-05-21T11:28:27.718Z,26.90
2019-05-21T11:31:01.560Z,20.77
2019-05-21T11:33:30.341Z,24.50
2019-05-21T11:35:59.294Z,24.10
2019-05-21T11:38:39.503Z,22.90
2019-05-21T11:40:58.650Z,24.87
2019-05-21T11:43:27.460Z,20.40
2019-05-21T11:46:11.448Z,21.20
2019-05-21T11:48:40.261Z,23.63
2019-05-21T11:51:12.523Z,20.73
2019-05-21T11:53:46.867Z,21.97
2019-05-21T11:56:15.717Z,20.90
2019-05-21T11:58:44.548Z,25.00
2019-05-21T12:01:13.568Z,22.37
2019-05-21T12:03:42.384Z,23.30
2019-05-21T12:06:11.100Z,22.73
2019-05-21T12:08:56.299Z,20.73
2019-05-21T12:11:16.922Z,19.63
2019-05-21T12:13:45.994Z,20.13
2019-05-21T12:16:14.788Z,21.97
2019-05-21T12:18:49.557Z,20.83
2019-05-21T12:21:24.446Z,20.03
2019-05-21T12:23:53.258Z,18.93
2019-05-21T12:26:22.031Z,20.23
2019-05-21T12:28:51.120Z,21.80
2019-05-21T12:31:19.878Z,20.13
2019-05-21T12:34:19.013Z,20.73
2019-05-21T12:36:47.836Z,21.13
2019-05-21T12:39:16.625Z,23.63
2019-05-21T12:42:04.741Z,20.07
2019-05-21T12:44:33.498Z,23.40
2019-05-21T12:47:02.308Z,22.93
2019-05-21T12:49:31.183Z,24.33
2019-05-21T12:52:00.004Z,20.70
2019-05-21T12:54:29.604Z,21.00
2019-05-21T12:57:21.430Z,18.90
2019-05-21T12:59:50.205Z,16.83
2019-05-21T13:02:19.048Z,16.77
2019-05-21T13:04:48.964Z,15.23
2019-05-21T13:07:17.744Z,15.00
2019-05-21T13:09:46.557Z,13.97
2019-05-21T13:12:17.424Z,14.53
2019-05-21T13:14:46.223Z,14.50
2019-05-21T13:17:14.940Z,13.40
2019-05-21T13:19:46.790Z,14.77
2019-05-21T13:22:15.597Z,17.03
2019-05-21T13:24:50.825Z,15.73
2019-05-21T13:27:19.624Z,15.03
2019-05-21T13:29:48.478Z,16.43
2019-05-21T13:32:19.398Z,14.73
2019-05-21T13:34:48.110Z,15.10
2019-05-21T13:37:19.905Z,15.30
2019-05-21T13:39:50.341Z,17.17
2019-05-21T13:42:38.200Z,15.70
2019-05-21T13:45:08.216Z,17.70
2019-05-21T13:47:38.219Z,15.33
2019-05-21T13:50:06.806Z,14.57
2019-05-21T13:55:36.533Z,17.33
2019-05-21T13:58:05.650Z,20.03
2019-05-21T14:06:35.077Z,18.60
2019-05-21T14:09:05.628Z,19.37
2019-05-21T14:11:34.598Z,17.17
2019-05-21T14:14:04.367Z,21.53
2019-05-21T14:16:34.963Z,19.67
2019-05-21T14:19:03.957Z,19.03
2019-05-21T14:21:34.788Z,16.87
2019-05-21T14:24:03.619Z,20.00
2019-05-21T14:26:43.144Z,19.37
2019-05-21T14:29:11.943Z,23.30
2019-05-21T14:31:44.829Z,22.50
2019-05-21T14:34:13.645Z,20.97
2019-05-21T14:36:44.571Z,22.97
2019-05-21T14:39:17.968Z,21.17
2019-05-21T14:41:55.018Z,19.07
2019-05-21T14:44:23.857Z,20.17
2019-05-21T14:46:52.669Z,21.60
2019-05-21T14:49:21.735Z,22.30
2019-05-21T14:52:09.832Z,21.17
2019-05-21T14:54:38.738Z,21.87
2019-05-21T14:57:14.581Z,20.43
2019-05-21T14:59:43.398Z,20.10
2019-05-21T15:02:51.298Z,21.37
2019-05-21T15:05:28.245Z,20.90
2019-05-21T15:07:57.027Z,21.13
2019-05-21T15:10:28.893Z,22.43
2019-05-21T15:12:57.907Z,23.50
2019-05-21T15:15:27.802Z,21.53
2019-05-21T15:17:56.581Z,21.07
2019-05-21T15:25:56.920Z,19.77
2019-05-21T15:28:25.873Z,19.97
2019-05-21T15:30:55.031Z,19.33
2019-05-21T15:33:23.842Z,19.20
2019-05-21T15:35:53.698Z,17.03
2019-05-21T15:38:22.607Z,17.43
2019-05-21T15:41:08.841Z,17.10
2019-05-21T15:43:23.187Z,15.40
2019-05-21T15:45:52.163Z,15.13
2019-05-21T15:48:25.727Z,14.33
2019-05-21T15:50:51.484Z,16.10
2019-05-21T15:53:32.435Z,15.27
2019-05-21T15:56:01.567Z,14.40
2019-05-21T15:58:33.397Z,14.10
2019-05-21T16:01:02.585Z,13.90
2019-05-21T16:03:39.747Z,14.37
2019-05-21T16:06:08.554Z,17.83
2019-05-21T16:08:37.504Z,16.70
2019-05-21T16:11:06.989Z,15.93
2019-05-21T16:13:39.882Z,17.37
2019-05-21T16:16:08.674Z,17.03
2019-05-21T16:18:49.739Z,16.60
2019-05-21T16:21:18.561Z,19.70
2019-05-21T16:23:52.833Z,19.00
2019-05-21T16:26:23.368Z,18.93
2019-05-21T16:28:53.200Z,19.43
2019-05-21T16:31:22.742Z,20.20
2019-05-21T16:33:51.565Z,24.47
2019-05-21T16:36:20.285Z,21.73
2019-05-21T16:38:49.257Z,24.03
2019-05-21T16:41:17.981Z,22.03
2019-05-21T16:43:46.793Z,23.20
2019-05-21T16:46:15.734Z,23.83
2019-05-21T16:48:44.500Z,22.90
2019-05-21T16:51:21.559Z,25.77
2019-05-21T16:53:50.191Z,23.10
2019-05-21T16:56:18.997Z,22.90
2019-05-21T16:58:47.870Z,23.77
2019-05-21T17:01:16.677Z,29.37
2019-05-21T17:03:59.129Z,29.20
2019-05-21T17:06:15.812Z,28.13
2019-05-21T17:08:44.554Z,19.67
2019-05-21T17:11:13.263Z,16.33
2019-05-21T17:13:41.960Z,14.03
2019-05-21T17:16:10.791Z,14.27
2019-05-21T17:18:39.606Z,14.60
2019-05-21T17:21:08.345Z,13.57
2019-05-21T17:23:37.135Z,13.70
2019-05-21T17:26:05.923Z,13.67
2019-05-21T17:28:34.704Z,13.00
2019-05-21T17:31:03.574Z,13.67
2019-05-21T17:33:32.473Z,13.27
2019-05-21T17:36:01.262Z,11.83
2019-05-21T17:38:30.050Z,14.03
2019-05-21T17:40:58.947Z,12.63
2019-05-21T17:43:27.758Z,13.63
2019-05-21T17:45:56.584Z,22.90
2019-05-21T17:48:25.366Z,22.10
2019-05-21T17:50:54.290Z,20.70
2019-05-21T17:53:23.564Z,14.23
2019-05-21T17:55:52.355Z,14.77
2019-05-21T17:58:21.138Z,12.20
2019-05-21T18:00:51.578Z,13.30
2019-05-21T18:03:20.673Z,15.13
2019-05-21T18:05:50.422Z,16.27
2019-05-21T18:08:20.241Z,13.20
2019-05-21T18:10:49.308Z,14.87
2019-05-21T18:13:19.521Z,12.63
2019-05-21T18:15:49.347Z,15.93
2019-05-21T18:18:18.484Z,13.30
2019-05-21T18:20:47.910Z,15.93
2019-05-21T18:23:16.590Z,13.30
2019-05-21T18:25:45.428Z,13.30
2019-05-21T18:28:14.151Z,16.43
2019-05-21T18:30:42.986Z,13.13
2019-05-21T18:33:11.733Z,12.93
2019-05-21T18:35:40.532Z,13.27
2019-05-21T18:38:09.332Z,14.80
2019-05-21T18:40:38.379Z,15.67
2019-05-21T18:43:07.226Z,13.90
2019-05-21T18:45:36.002Z,14.67
2019-05-21T18:48:04.782Z,18.27
2019-05-21T18:50:36.573Z,16.43
2019-05-21T18:53:04.146Z,14.90
2019-05-21T18:55:32.899Z,14.77
2019-05-21T18:58:01.638Z,15.10
2019-05-21T19:00:30.409Z,16.10
2019-05-21T19:02:59.065Z,15.87
2019-05-21T19:05:27.966Z,15.43
2019-05-21T19:08:07.088Z,15.63
2019-05-21T19:10:36.027Z,16.13
2019-05-21T19:13:05.099Z,18.73
2019-05-21T19:15:53.190Z,16.23
2019-05-21T19:21:06.323Z,15.73
2019-05-21T19:23:35.088Z,15.80
2019-05-21T19:26:05.082Z,15.43
2019-05-21T19:28:34.536Z,16.37
2019-05-21T19:31:09.841Z,18.57
2019-05-21T19:33:39.004Z,17.13
2019-05-21T19:36:08.139Z,17.33
2019-05-21T19:38:37.355Z,16.43
2019-05-21T19:41:06.582Z,16.70
2019-05-21T19:43:35.427Z,18.73
2019-05-21T19:46:05.497Z,16.10
2019-05-21T19:48:34.893Z,16.00
2019-05-21T19:51:05.569Z,19.53
2019-05-21T19:53:34.518Z,16.63
2019-05-21T19:56:05.387Z,16.50
2019-05-21T19:58:34.301Z,18.50
2019-05-21T20:01:11.077Z,17.67
2019-05-21T20:03:40.050Z,18.47
2019-05-21T20:06:13.137Z,17.60
2019-05-21T20:08:42.189Z,18.50
2019-05-21T20:11:13.227Z,18.23
2019-05-21T20:13:42.811Z,18.00
2019-05-21T20:16:13.275Z,17.87
2019-05-21T20:18:42.246Z,20.63
2019-05-21T20:21:11.170Z,16.80
2019-05-21T20:23:47.598Z,18.43
2019-05-21T20:26:19.305Z,19.13
2019-05-21T20:28:49.455Z,20.53
2019-05-21T20:31:19.098Z,23.50
2019-05-21T20:33:50.301Z,21.17
2019-05-21T20:36:19.422Z,21.30
2019-05-21T20:39:00.061Z,22.57
2019-05-21T20:41:29.372Z,23.73
2019-05-21T20:44:08.827Z,20.90
2019-05-21T20:46:38.599Z,23.27
2019-05-21T20:49:14.866Z,21.33
2019-05-21T20:51:44.307Z,25.90
2019-05-21T20:54:17.863Z,24.83
2019-05-21T20:56:46.663Z,23.80
2019-05-21T20:59:15.517Z,22.63
2019-05-21T21:01:45.081Z,23.33
2019-05-21T21:04:14.513Z,23.40
2019-05-21T21:06:43.664Z,26.80
2019-05-21T21:09:17.674Z,24.93
2019-05-21T21:11:46.916Z,20.67
2019-05-21T21:14:19.465Z,21.63
2019-05-21T21:16:48.563Z,21.80
2019-05-21T21:19:21.079Z,23.23
2019-05-21T21:21:53.137Z,23.20
2019-05-21T21:24:22.327Z,22.87
2019-05-21T21:26:51.435Z,24.17
2019-05-21T21:29:20.222Z,22.70
2019-05-21T21:31:57.497Z,21.87
2019-05-21T21:34:26.385Z,23.70
2019-05-21T21:36:57.249Z,22.67
2019-05-21T21:39:26.121Z,23.37
2019-05-21T21:41:59.158Z,22.70
2019-05-21T21:44:34.219Z,25.53
2019-05-21T21:47:01.459Z,22.80
2019-05-21T21:49:31.469Z,22.97
2019-05-21T21:52:01.702Z,24.10
2019-05-21T21:54:47.699Z,23.17
2019-05-21T21:57:16.958Z,25.63
2019-05-21T21:59:46.385Z,21.40
2019-05-21T22:02:38.392Z,25.23
2019-05-21T22:05:09.033Z,31.60
2019-05-21T22:07:39.949Z,24.60
2019-05-21T22:10:09.693Z,25.87
2019-05-21T22:12:38.899Z,25.70
2019-05-21T22:15:08.054Z,25.90
2019-05-21T22:17:53.578Z,29.30
2019-05-21T22:20:22.850Z,29.37
2019-05-21T22:22:51.719Z,28.97
2019-05-21T22:25:20.586Z,28.90
2019-05-21T22:27:54.612Z,25.90
2019-05-21T22:30:25.082Z,26.43
2019-05-21T22:32:54.021Z,26.37
2019-05-21T22:35:22.868Z,24.27
2019-05-21T22:38:01.059Z,27.90
2019-05-21T22:40:30.112Z,28.27
2019-05-21T22:42:58.982Z,29.30
2019-05-21T22:45:27.798Z,27.53
2019-05-21T22:48:07.176Z,27.00
2019-05-21T22:50:36.266Z,27.50
2019-05-21T22:53:06.484Z,28.97
2019-05-21T22:55:35.296Z,31.53
2019-05-21T22:58:06.323Z,27.30
2019-05-21T23:00:35.521Z,34.57
2019-05-21T23:03:09.836Z,30.47
2019-05-21T23:05:38.665Z,34.47
2019-05-21T23:08:22.587Z,30.73
2019-05-21T23:10:51.415Z,29.00
2019-05-21T23:13:32.183Z,35.27
2019-05-21T23:16:02.033Z,33.03
2019-05-21T23:18:30.881Z,35.17
2019-05-21T23:21:00.455Z,30.03
2019-05-21T23:23:36.067Z,36.23
2019-05-21T23:26:06.218Z,34.07
2019-05-21T23:28:49.564Z,31.37
2019-05-21T23:31:19.078Z,36.50
2019-05-21T23:33:49.024Z,35.27
2019-05-21T23:36:34.142Z,33.73
2019-05-21T23:39:08.815Z,35.80
2019-05-21T23:41:37.628Z,34.30
2019-05-21T23:44:11.742Z,37.50
2019-05-21T23:46:40.494Z,39.07
2019-05-21T23:49:22.694Z,38.90
2019-05-21T23:51:51.497Z,37.37
2019-05-21T23:54:25.467Z,36.20
2019-05-21T23:56:55.640Z,38.73
2019-05-21T23:59:30.814Z,40.63
